Time,TemperatureF,DewpointF,PressureIn,WindDirection,WindDirectionDegrees,WindSpeedMPH,WindSpeedGustMPH,Humidity,HourlyPrecipIn,Conditions,Clouds,dailyrainin,SoftwareType,DateUTC
2013-03-30 00:02:00,55.0,40.0,30.07,ESE,106,2.0,3.0,57,0.00,,,0.00,,2013-03-30 05:02:00,
2013-03-30 00:12:00,55.0,40.0,30.07,ESE,106,2.0,3.0,57,0.00,,,0.00,,2013-03-30 05:12:00,
2013-03-30 00:22:00,54.0,42.0,30.05,ESE,106,4.0,4.0,63,0.00,,,0.00,,2013-03-30 05:22:00,
2013-03-30 00:32:00,54.0,42.0,30.05,ESE,106,4.0,4.0,63,0.00,,,0.00,,2013-03-30 05:32:00,
2013-03-30 00:42:00,54.0,42.0,30.05,ESE,106,4.0,4.0,63,0.00,,,0.00,,2013-03-30 05:42:00,
2013-03-30 00:52:00,54.0,43.0,30.04,ESE,114,3.0,4.0,66,0.00,,,0.00,,2013-03-30 05:52:00,
2013-03-30 01:02:00,54.0,43.0,30.04,ESE,114,3.0,4.0,66,0.00,,,0.00,,2013-03-30 06:02:00,
2013-03-30 01:12:00,54.0,43.0,30.04,ESE,114,3.0,4.0,66,0.00,,,0.00,,2013-03-30 06:12:00,
2013-03-30 01:22:00,53.0,43.0,30.04,ESE,114,3.0,4.0,68,0.00,,,0.00,,2013-03-30 06:22:00,
2013-03-30 01:32:00,53.0,43.0,30.04,ESE,114,3.0,4.0,68,0.00,,,0.00,,2013-03-30 06:32:00,
2013-03-30 01:42:00,53.0,43.0,30.04,ESE,114,3.0,4.0,68,0.00,,,0.00,,2013-03-30 06:42:00,
2013-03-30 01:52:00,53.0,43.0,30.04,SE,125,3.0,6.0,70,0.00,,,0.00,,2013-03-30 06:52:00,
2013-03-30 02:02:00,53.0,43.0,30.04,SE,125,3.0,6.0,70,0.00,,,0.00,,2013-03-30 07:02:00,
2013-03-30 02:12:00,53.0,43.0,30.04,SE,125,3.0,6.0,70,0.00,,,0.00,,2013-03-30 07:12:00,
2013-03-30 02:22:00,54.0,44.0,30.04,ESE,116,3.0,4.0,70,0.00,,,0.00,,2013-03-30 07:22:00,
2013-03-30 02:32:00,54.0,44.0,30.04,ESE,116,3.0,4.0,70,0.00,,,0.00,,2013-03-30 07:32:00,
2013-03-30 02:42:00,54.0,44.0,30.04,ESE,116,3.0,4.0,70,0.00,,,0.00,,2013-03-30 07:42:00,
2013-03-30 02:52:00,54.0,45.0,30.03,SE,134,5.0,5.0,71,0.00,,,0.00,,2013-03-30 07:52:00,
2013-03-30 03:02:00,54.0,45.0,30.03,SE,134,5.0,5.0,71,0.00,,,0.00,,2013-03-30 08:02:00,
2013-03-30 03:12:00,54.0,45.0,30.03,SE,134,5.0,5.0,71,0.00,,,0.00,,2013-03-30 08:12:00,
2013-03-30 03:21:00,54.0,44.0,30.02,ESE,105,3.0,4.0,69,0.00,,,0.00,,2013-03-30 08:21:00,
2013-03-30 03:32:00,54.0,44.0,30.02,ESE,105,3.0,4.0,69,0.00,,,0.00,,2013-03-30 08:32:00,
2013-03-30 03:42:00,54.0,44.0,30.02,ESE,105,3.0,4.0,69,0.00,,,0.00,,2013-03-30 08:42:00,
2013-03-30 03:52:00,54.0,45.0,30.01,ESE,123,4.0,4.0,71,0.00,,,0.00,,2013-03-30 08:52:00,
2013-03-30 04:02:00,54.0,45.0,30.01,ESE,123,4.0,4.0,71,0.00,,,0.00,,2013-03-30 09:02:00,
2013-03-30 04:12:00,53.0,44.0,30.00,SE,129,4.0,7.0,72,0.00,,,0.00,,2013-03-30 09:12:00,
2013-03-30 04:22:00,53.0,44.0,30.00,SE,129,4.0,7.0,72,0.00,,,0.00,,2013-03-30 09:22:00,
2013-03-30 04:43:00,53.0,44.0,30.00,SE,129,4.0,7.0,72,0.00,,,0.00,,2013-03-30 09:43:00,
2013-03-30 04:53:00,53.0,45.0,30.00,SE,136,4.0,4.0,73,0.00,,,0.00,,2013-03-30 09:53:00,
2013-03-30 05:02:00,53.0,45.0,30.00,SE,136,4.0,4.0,73,0.00,,,0.00,,2013-03-30 10:02:00,
2013-03-30 05:13:00,53.0,45.0,30.00,SE,136,4.0,4.0,73,0.00,,,0.00,,2013-03-30 10:13:00,
2013-03-30 05:23:00,53.0,45.0,29.97,ESE,113,5.0,5.0,75,0.00,,,0.00,,2013-03-30 10:23:00,
2013-03-30 05:33:00,53.0,45.0,29.97,ESE,113,5.0,5.0,75,0.00,,,0.00,,2013-03-30 10:33:00,
2013-03-30 05:42:00,53.0,45.0,29.97,ESE,113,5.0,5.0,75,0.00,,,0.00,,2013-03-30 10:42:00,
2013-03-30 05:52:00,52.0,45.0,29.95,SE,126,4.0,6.0,77,0.00,,,0.00,,2013-03-30 10:52:00,
2013-03-30 06:03:00,52.0,45.0,29.95,SE,126,4.0,6.0,77,0.00,,,0.00,,2013-03-30 11:03:00,
2013-03-30 06:12:00,52.0,45.0,29.95,SE,126,4.0,6.0,77,0.00,,,0.00,,2013-03-30 11:12:00,
2013-03-30 06:22:00,52.0,45.0,29.96,SE,125,2.0,4.0,77,0.00,,,0.00,,2013-03-30 11:22:00,
2013-03-30 06:33:00,52.0,45.0,29.96,SE,125,2.0,4.0,77,0.00,,,0.00,,2013-03-30 11:33:00,
2013-03-30 06:42:00,52.0,45.0,29.96,SE,125,2.0,4.0,77,0.00,,,0.00,,2013-03-30 11:42:00,
2013-03-30 06:52:00,52.0,45.0,29.93,ESE,117,4.0,6.0,78,0.00,,,0.00,,2013-03-30 11:52:00,
2013-03-30 07:02:00,52.0,45.0,29.93,ESE,117,4.0,6.0,78,0.00,,,0.00,,2013-03-30 12:02:00,
2013-03-30 07:12:00,52.0,45.0,29.93,ESE,117,4.0,6.0,78,0.00,,,0.00,,2013-03-30 12:12:00,
2013-03-30 07:22:00,53.0,46.0,29.92,ESE,119,5.0,5.0,78,0.00,,,0.00,,2013-03-30 12:22:00,
2013-03-30 07:32:00,53.0,46.0,29.92,ESE,119,5.0,5.0,78,0.00,,,0.00,,2013-03-30 12:32:00,
2013-03-30 07:42:00,53.0,46.0,29.92,ESE,119,5.0,5.0,78,0.00,,,0.00,,2013-03-30 12:42:00,
2013-03-30 07:52:00,52.0,46.0,29.91,SSE,148,5.0,5.0,80,0.00,,,0.00,,2013-03-30 12:52:00,
2013-03-30 08:02:00,52.0,46.0,29.91,SSE,148,5.0,5.0,80,0.00,,,0.00,,2013-03-30 13:02:00,
2013-03-30 08:12:00,52.0,46.0,29.91,SSE,148,5.0,5.0,80,0.00,,,0.00,,2013-03-30 13:12:00,
2013-03-30 08:22:00,52.0,47.0,29.92,SE,136,5.0,10.0,84,0.00,,,0.00,,2013-03-30 13:22:00,
2013-03-30 08:32:00,52.0,47.0,29.92,SE,136,5.0,10.0,84,0.00,,,0.00,,2013-03-30 13:32:00,
2013-03-30 08:42:00,52.0,47.0,29.92,SE,136,5.0,10.0,84,0.00,,,0.00,,2013-03-30 13:42:00,
2013-03-30 08:52:00,53.0,49.0,29.92,SE,136,7.0,13.0,85,0.00,,,0.00,,2013-03-30 13:52:00,
2013-03-30 09:02:00,53.0,49.0,29.92,SE,136,7.0,13.0,85,0.00,,,0.00,,2013-03-30 14:02:00,
2013-03-30 09:11:00,53.0,49.0,29.92,SE,136,7.0,13.0,85,0.00,,,0.00,,2013-03-30 14:11:00,
2013-03-30 09:22:00,53.0,49.0,29.90,SSW,195,4.0,5.0,86,0.00,,,0.00,,2013-03-30 14:22:00,
2013-03-30 09:32:00,53.0,49.0,29.90,SSW,195,4.0,5.0,86,0.00,,,0.00,,2013-03-30 14:32:00,
2013-03-30 09:42:00,53.0,49.0,29.90,SSW,195,4.0,5.0,86,0.00,,,0.00,,2013-03-30 14:42:00,
2013-03-30 09:52:00,53.0,49.0,29.91,SSW,211,0.0,3.0,87,0.00,,,0.00,,2013-03-30 14:52:00,
2013-03-30 10:02:00,53.0,49.0,29.91,SSW,211,0.0,3.0,87,0.00,,,0.00,,2013-03-30 15:02:00,
2013-03-30 10:12:00,53.0,49.0,29.91,SSW,211,0.0,3.0,87,0.00,,,0.00,,2013-03-30 15:12:00,
2013-03-30 10:22:00,53.0,49.0,29.91,North,360,0.0,1.0,87,0.00,,,0.00,,2013-03-30 15:22:00,
2013-03-30 10:33:00,53.0,49.0,29.91,North,360,0.0,1.0,87,0.00,,,0.00,,2013-03-30 15:33:00,
2013-03-30 10:43:00,53.0,49.0,29.91,North,360,0.0,1.0,87,0.00,,,0.00,,2013-03-30 15:43:00,
2013-03-30 10:52:00,54.0,50.0,29.91,North,360,0.0,2.0,87,0.00,,,0.00,,2013-03-30 15:52:00,
2013-03-30 11:03:00,54.0,50.0,29.91,North,360,0.0,2.0,87,0.00,,,0.00,,2013-03-30 16:03:00,
2013-03-30 11:13:00,55.0,51.0,29.92,SE,134,1.0,2.0,86,0.00,,,0.00,,2013-03-30 16:13:00,
2013-03-30 11:23:00,55.0,51.0,29.92,SE,134,1.0,2.0,86,0.00,,,0.00,,2013-03-30 16:23:00,
2013-03-30 11:33:00,55.0,51.0,29.92,SE,134,1.0,2.0,86,0.00,,,0.00,,2013-03-30 16:33:00,
2013-03-30 11:43:00,55.0,51.0,29.92,SE,134,1.0,2.0,86,0.00,,,0.00,,2013-03-30 16:43:00,
2013-03-30 11:52:00,56.0,52.0,29.91,SE,131,2.0,2.0,85,0.00,,,0.00,,2013-03-30 16:52:00,
2013-03-30 12:02:00,56.0,52.0,29.91,SE,131,2.0,2.0,85,0.00,,,0.00,,2013-03-30 17:02:00,
2013-03-30 12:13:00,56.0,52.0,29.91,SE,131,2.0,2.0,85,0.00,,,0.00,,2013-03-30 17:13:00,
2013-03-30 12:22:00,56.0,52.0,29.93,NNE,30,1.0,1.0,85,0.00,,,0.00,,2013-03-30 17:22:00,
2013-03-30 12:32:00,56.0,52.0,29.93,NNE,30,1.0,1.0,85,0.00,,,0.00,,2013-03-30 17:32:00,
2013-03-30 12:42:00,56.0,52.0,29.93,NNE,30,1.0,1.0,85,0.00,,,0.00,,2013-03-30 17:42:00,
2013-03-30 12:52:00,56.0,52.0,29.92,NE,40,1.0,1.0,88,0.01,,,0.01,,2013-03-30 17:52:00,
2013-03-30 13:03:00,56.0,52.0,29.92,NE,40,1.0,1.0,88,0.01,,,0.01,,2013-03-30 18:03:00,
2013-03-30 13:12:00,57.0,53.0,29.92,NE,37,0.0,2.0,88,0.01,,,0.01,,2013-03-30 18:12:00,
2013-03-30 13:22:00,57.0,53.0,29.92,NE,37,0.0,2.0,88,0.01,,,0.01,,2013-03-30 18:22:00,
2013-03-30 13:32:00,57.0,53.0,29.92,NE,37,0.0,2.0,88,0.01,,,0.01,,2013-03-30 18:32:00,
2013-03-30 13:42:00,57.0,53.0,29.92,NE,37,0.0,2.0,88,0.01,,,0.01,,2013-03-30 18:42:00,
2013-03-30 13:53:00,60.0,56.0,29.90,SE,127,2.0,3.0,86,0.00,,,0.01,,2013-03-30 18:53:00,
2013-03-30 14:03:00,60.0,56.0,29.90,SE,127,2.0,3.0,86,0.00,,,0.01,,2013-03-30 19:03:00,
2013-03-30 14:13:00,60.0,56.0,29.90,SE,127,2.0,3.0,86,0.00,,,0.01,,2013-03-30 19:13:00,
2013-03-30 14:22:00,60.0,54.0,29.89,North,360,0.0,0.0,81,0.00,,,0.01,,2013-03-30 19:22:00,
2013-03-30 14:32:00,60.0,54.0,29.89,North,360,0.0,0.0,81,0.00,,,0.01,,2013-03-30 19:32:00,
2013-03-30 14:42:00,60.0,54.0,29.89,North,360,0.0,0.0,81,0.00,,,0.01,,2013-03-30 19:42:00,
2013-03-30 14:52:00,59.0,54.0,29.88,ENE,67,1.0,1.0,85,0.00,,,0.00,,2013-03-30 19:52:00,
2013-03-30 15:02:00,59.0,54.0,29.88,ENE,67,1.0,1.0,85,0.00,,,0.00,,2013-03-30 20:02:00,
2013-03-30 15:12:00,59.0,54.0,29.88,ENE,67,1.0,1.0,85,0.00,,,0.00,,2013-03-30 20:12:00,
2013-03-30 15:22:00,61.0,56.0,29.85,ENE,66,0.0,1.0,84,0.00,,,0.00,,2013-03-30 20:22:00,
2013-03-30 15:32:00,61.0,56.0,29.85,ENE,66,0.0,1.0,84,0.00,,,0.00,,2013-03-30 20:32:00,
2013-03-30 15:42:00,61.0,56.0,29.85,ENE,66,0.0,1.0,84,0.00,,,0.00,,2013-03-30 20:42:00,
2013-03-30 15:52:00,63.0,55.0,29.85,SSE,157,3.0,5.0,75,0.00,,,0.00,,2013-03-30 20:52:00,
2013-03-30 16:02:00,63.0,55.0,29.85,SSE,157,3.0,5.0,75,0.00,,,0.00,,2013-03-30 21:02:00,
2013-03-30 16:12:00,63.0,55.0,29.85,SSE,157,3.0,5.0,75,0.00,,,0.00,,2013-03-30 21:12:00,
2013-03-30 16:22:00,64.0,55.0,29.84,SSW,205,2.0,2.0,72,0.00,,,0.00,,2013-03-30 21:22:00,
2013-03-30 16:34:00,64.0,55.0,29.84,SSW,205,2.0,2.0,72,0.00,,,0.00,,2013-03-30 21:34:00,
2013-03-30 16:43:00,64.0,55.0,29.84,SSW,205,2.0,2.0,72,0.00,,,0.00,,2013-03-30 21:43:00,
2013-03-30 16:52:00,64.0,54.0,29.84,WSW,252,2.0,5.0,70,0.00,,,0.00,,2013-03-30 21:52:00,
2013-03-30 17:03:00,64.0,54.0,29.84,WSW,252,2.0,5.0,70,0.00,,,0.00,,2013-03-30 22:03:00,
2013-03-30 17:13:00,64.0,54.0,29.84,WSW,252,2.0,5.0,70,0.00,,,0.00,,2013-03-30 22:13:00,
2013-03-30 17:23:00,64.0,54.0,29.84,West,273,6.0,6.0,70,0.00,,,0.00,,2013-03-30 22:23:00,
2013-03-30 17:33:00,64.0,54.0,29.84,West,273,6.0,6.0,70,0.00,,,0.00,,2013-03-30 22:33:00,
2013-03-30 17:43:00,64.0,54.0,29.84,West,273,6.0,6.0,70,0.00,,,0.00,,2013-03-30 22:43:00,
2013-03-30 17:53:00,64.0,53.0,29.83,North,354,5.0,7.0,67,0.00,,,0.00,,2013-03-30 22:53:00,
2013-03-30 18:02:00,64.0,53.0,29.83,North,354,5.0,7.0,67,0.00,,,0.00,,2013-03-30 23:02:00,
2013-03-30 18:12:00,64.0,53.0,29.83,North,354,5.0,7.0,67,0.00,,,0.00,,2013-03-30 23:12:00,
2013-03-30 18:22:00,65.0,53.0,29.83,NNW,348,5.0,5.0,64,0.00,,,0.00,,2013-03-30 23:22:00,
2013-03-30 18:33:00,65.0,53.0,29.83,NNW,348,5.0,5.0,64,0.00,,,0.00,,2013-03-30 23:33:00,
2013-03-30 18:42:00,65.0,53.0,29.83,NNW,348,5.0,5.0,64,0.00,,,0.00,,2013-03-30 23:42:00,
2013-03-30 18:52:00,65.0,51.0,29.83,NNE,15,6.0,6.0,60,0.00,,,0.00,,2013-03-30 23:52:00,
2013-03-30 19:02:00,65.0,51.0,29.83,NNE,15,6.0,6.0,60,0.00,,,0.00,,2013-03-31 00:02:00,
2013-03-30 19:12:00,65.0,51.0,29.83,NNE,15,6.0,6.0,60,0.00,,,0.00,,2013-03-31 00:12:00,
2013-03-30 19:22:00,62.0,52.0,29.83,NNE,31,1.0,2.0,71,0.00,,,0.00,,2013-03-31 00:22:00,
2013-03-30 19:32:00,62.0,52.0,29.83,NNE,31,1.0,2.0,71,0.00,,,0.00,,2013-03-31 00:32:00,
2013-03-30 19:42:00,62.0,52.0,29.83,NNE,31,1.0,2.0,71,0.00,,,0.00,,2013-03-31 00:42:00,
2013-03-30 19:52:00,61.0,52.0,29.84,NE,53,0.0,2.0,73,0.00,,,0.00,,2013-03-31 00:52:00,
2013-03-30 20:02:00,61.0,52.0,29.84,NE,53,0.0,2.0,73,0.00,,,0.00,,2013-03-31 01:02:00,
2013-03-30 20:12:00,61.0,52.0,29.84,NE,53,0.0,2.0,73,0.00,,,0.00,,2013-03-31 01:12:00,
2013-03-30 20:22:00,59.0,51.0,29.85,NE,47,1.0,1.0,75,0.00,,,0.00,,2013-03-31 01:22:00,
2013-03-30 20:32:00,59.0,51.0,29.85,NE,47,1.0,1.0,75,0.00,,,0.00,,2013-03-31 01:32:00,
2013-03-30 20:42:00,59.0,51.0,29.85,NE,47,1.0,1.0,75,0.00,,,0.00,,2013-03-31 01:42:00,
2013-03-30 20:52:00,58.0,51.0,29.85,North,360,0.0,0.0,77,0.00,,,0.00,,2013-03-31 01:52:00,
2013-03-30 21:02:00,58.0,51.0,29.85,North,360,0.0,0.0,77,0.00,,,0.00,,2013-03-31 02:02:00,
2013-03-30 21:13:00,58.0,51.0,29.85,North,360,0.0,0.0,77,0.00,,,0.00,,2013-03-31 02:13:00,
2013-03-30 21:22:00,57.0,51.0,29.86,North,360,0.0,0.0,80,0.00,,,0.00,,2013-03-31 02:22:00,
2013-03-30 21:32:00,57.0,51.0,29.86,North,360,0.0,0.0,80,0.00,,,0.00,,2013-03-31 02:32:00,
2013-03-30 21:43:00,57.0,51.0,29.86,North,360,0.0,0.0,80,0.00,,,0.00,,2013-03-31 02:43:00,
2013-03-30 21:52:00,56.0,51.0,29.87,North,360,0.0,1.0,84,0.00,,,0.00,,2013-03-31 02:52:00,
2013-03-30 22:02:00,56.0,51.0,29.87,North,360,0.0,1.0,84,0.00,,,0.00,,2013-03-31 03:02:00,
2013-03-30 22:12:00,56.0,51.0,29.87,North,360,0.0,1.0,84,0.00,,,0.00,,2013-03-31 03:12:00,
2013-03-30 22:22:00,56.0,52.0,29.87,North,360,0.0,1.0,85,0.00,,,0.00,,2013-03-31 03:22:00,
2013-03-30 22:33:00,56.0,52.0,29.87,North,360,0.0,1.0,85,0.00,,,0.00,,2013-03-31 03:33:00,
2013-03-30 22:43:00,56.0,52.0,29.87,North,360,0.0,1.0,85,0.00,,,0.00,,2013-03-31 03:43:00,
2013-03-30 22:53:00,54.0,50.0,29.88,NE,54,0.0,1.0,86,0.00,,,0.00,,2013-03-31 03:53:00,
2013-03-30 23:03:00,54.0,-99.9,29.88,NE,54,0.0,1.0,86,0.00,,,0.00,,2013-03-31 04:03:00,
2013-03-30 23:13:00,54.0,50.0,29.88,NE,54,0.0,1.0,86,0.00,,,0.00,,2013-03-31 04:13:00,
2013-03-30 23:23:00,54.0,51.0,29.89,North,360,0.0,2.0,89,0.00,,,0.00,,2013-03-31 04:23:00,
2013-03-30 23:32:00,54.0,51.0,29.89,North,360,0.0,2.0,89,0.00,,,0.00,,2013-03-31 04:32:00,
2013-03-30 23:42:00,54.0,51.0,29.89,North,360,0.0,2.0,89,0.00,,,0.00,,2013-03-31 04:42:00,
2013-03-30 23:52:00,53.0,50.0,29.88,North,360,0.0,0.0,90,0.00,,,0.00,,2013-03-31 04:52:00,